Latest Weather Observations for Braidwood

IDN60801

Issued at 6:05 pm EDT Tuesday 3 March 2015 (issued every 30 minutes, with the page automatically refreshed every 10 minutes)

About weather observations | Map of weather stations | Latest weather observations for NSW | Other Formats
Station Details ID: 069132 Name: BRAIDWOOD RACECOURSE AWS Lat: -35.43 Lon: 149.78 Height: 665.2 m
Data from the previous 72 hours. | See also: Recent months at Braidwood
Date/Time
EDT
Temp
°C
App
Temp
°C
Dew
Point
Rel
Hum
%
Delta-T
°C
Wind Press
QNH
hPa
Press
MSL
hPa
Rain
since 9 am
mm
Dir
 
Spd
km/h
Gust
km/h
Spd
kts
Gust
kts
03/06:00pm 18.0 15.7 13.1 73 2.8 ESE 17 20 9 11 1016.0 1013.9 0.0
03/05:30pm 18.8 16.6 13.4 71 3.2 ESE 17 22 9 12 1015.5 1013.5 0.0
03/05:00pm 20.1 18.1 14.9 72 3.1 ESE 19 26 10 14 1015.3 1013.3 0.0
03/04:30pm 20.8 18.8 14.9 69 3.6 ESE 19 24 10 13 1015.4 1013.4 0.0
03/04:00pm 22.0 20.8 16.1 69 3.7 SSE 17 24 9 13 1015.4 1013.4 0.0
03/03:30pm 21.7 20.2 15.3 67 3.9 SSE 17 24 9 13 1015.4 1013.4 0.0
03/03:00pm 21.5 20.4 15.3 68 3.8 SSE 15 19 8 10 1015.6 1013.6 0.0
03/02:30pm 22.0 20.0 15.4 66 4.1 SSE 20 26 11 14 1016.0 1013.9 0.0
03/02:00pm 23.1 23.5 15.2 61 4.9 SSE 7 11 4 6 1016.0 1013.9 0.0
03/01:30pm 23.4 24.8 14.4 57 5.5 CALM 0 4 0 2 1016.2 1014.2 0.0
03/01:00pm 22.8 23.9 15.6 64 4.4 SSE 4 7 2 4 1016.6 1014.6 0.0
03/12:30pm 22.2 22.9 14.6 62 4.6 S 4 11 2 6 1017.1 1015.1 0.0
03/12:00pm 21.5 22.9 14.4 64 4.3 CALM 0 0 0 0 1017.7 1015.7 0.0
03/11:30am 20.4 21.7 14.1 67 3.8 CALM 0 0 0 0 1017.4 1015.4 0.0
03/11:00am 19.7 20.9 13.9 69 3.4 CALM 0 0 0 0 1017.8 1015.8 0.0
03/10:30am 18.9 19.9 13.3 70 3.3 CALM 0 0 0 0 1017.7 1015.7 0.0
03/10:00am 18.0 19.0 13.1 73 2.8 CALM 0 6 0 3 1017.7 1015.7 0.0
03/09:30am 17.7 18.6 13.0 74 2.7 CALM 0 0 0 0 1017.2 1015.2 0.0
03/09:00am 17.6 18.4 12.7 73 2.8 CALM 0 0 0 0 1017.1 1015.1 0.2
03/08:30am 16.2 16.7 12.9 81 1.9 N 2 7 1 4 1017.2 1015.2 0.2
03/08:00am 14.4 15.4 13.1 92 0.7 CALM 0 0 0 0 1016.9 1014.9 0.2
03/07:30am 12.3 12.7 11.4 94 0.5 CALM 0 0 0 0 1016.6 1014.6 0.2
03/07:00am 11.6 11.8 10.5 93 0.6 CALM 0 0 0 0 1016.2 1014.2 0.2
03/06:30am 11.8 11.9 10.2 90 0.8 CALM 0 0 0 0 1016.0 1013.9 0.2
03/06:00am 12.8 13.2 11.2 90 0.9 CALM 0 0 0 0 1015.8 1013.7 0.2
03/05:30am 13.3 13.8 11.7 90 0.9 CALM 0 0 0 0 1016.0 1013.9 0.2
03/05:00am 13.7 14.3 11.9 89 1.0 CALM 0 4 0 2 1016.0 1013.9 0.2
03/04:30am 14.1 14.5 12.5 90 0.9 NNE 2 7 1 4 1016.1 1014.1 0.2
03/04:00am 13.9 14.7 12.5 91 0.8 CALM 0 0 0 0 1016.4 1014.4 0.2
03/03:30am 13.9 14.7 12.6 92 0.7 CALM 0 0 0 0 1016.7 1014.7 0.2
03/03:00am 13.9 14.8 12.8 93 0.6 CALM 0 0 0 0 1016.6 1014.6 0.2
03/02:30am 13.5 14.3 12.6 94 0.5 CALM 0 0 0 0 1017.0 1015.0 0.2
03/02:00am 12.8 13.4 11.9 94 0.5 CALM 0 0 0 0 1017.7 1015.7 0.2
03/01:30am 12.4 12.7 11.0 91 0.8 CALM 0 0 0 0 1018.2 1016.2 0.2
03/01:00am 13.1 13.5 11.3 89 1.0 CALM 0 0 0 0 1018.5 1016.5 0.2
03/12:30am 13.7 14.2 11.6 87 1.2 CALM 0 0 0 0 1018.6 1016.6 0.2
03/12:00am 14.4 14.7 12.1 86 1.3 NNE 2 7 1 4 1019.0 1017.0 0.2
 
Date/Time
EDT
Temp
°C
App
Temp
°C
Dew
Point
Rel
Hum
%
Delta-T
°C
Wind Press
QNH
hPa
Press
MSL
hPa
Rain
since 9 am
mm
Dir
 
Spd
km/h
Gust
km/h
Spd
kts
Gust
kts
02/11:30pm 14.8 15.1 12.3 85 1.4 NNE 2 9 1 5 1019.2 1017.2 0.2
02/11:00pm 14.9 14.5 12.4 85 1.4 NE 6 9 3 5 1019.3 1017.3 0.2
02/10:30pm 14.9 14.5 12.4 85 1.4 NE 6 11 3 6 1019.2 1017.2 0.2
02/10:00pm 14.6 14.7 12.6 88 1.1 NE 4 7 2 4 1019.3 1017.3 0.2
02/09:30pm 14.4 13.8 12.4 88 1.1 ENE 7 11 4 6 1018.8 1016.9 0.2
02/09:00pm 14.4 13.9 12.6 89 1.0 ENE 7 9 4 5 1019.0 1017.0 0.2
02/08:30pm 14.2 13.2 12.2 88 1.1 E 9 13 5 7 1018.3 1016.3 0.2
02/08:00pm 14.7 13.4 12.6 87 1.2 ENE 11 15 6 8 1017.9 1015.9 0.2
02/07:30pm 14.8 13.8 12.3 85 1.4 E 9 13 5 7 1018.0 1016.0 0.2
02/07:00pm 16.1 14.0 12.5 79 2.0 E 15 20 8 11 1018.2 1016.2 0.2
02/06:30pm 17.2 15.2 12.7 75 2.6 ESE 15 20 8 11 1018.0 1016.0 0.2
02/06:00pm 17.6 15.2 12.5 72 2.9 ESE 17 22 9 12 1017.9 1015.9 0.2
02/05:30pm 19.6 17.1 12.4 63 4.2 ENE 17 24 9 13 1017.8 1015.8 0.2
02/05:00pm 19.4 16.9 12.4 64 4.0 E 17 24 9 13 1017.7 1015.7 0.2
02/04:30pm 19.3 17.2 12.3 64 4.0 E 15 24 8 13 1017.8 1015.8 0.2
02/04:00pm 19.6 17.1 12.4 63 4.2 E 17 22 9 12 1018.0 1016.0 0.2
02/03:30pm 19.7 17.1 12.0 61 4.4 E 17 24 9 13 1018.1 1016.1 0.2
02/03:00pm 19.9 18.5 12.2 61 4.4 E 11 19 6 10 1018.5 1016.5 0.2
02/02:30pm 19.5 17.1 11.5 60 4.5 E 15 24 8 13 1018.6 1016.6 0.2
02/02:00pm 19.4 17.8 11.7 61 4.4 E 11 20 6 11 1019.1 1017.1 0.2
02/01:30pm 19.5 18.4 11.8 61 4.4 NE 9 19 5 10 1019.2 1017.2 0.2
02/01:00pm 18.9 17.4 10.5 58 4.7 ENE 9 20 5 11 1019.5 1017.5 0.2
02/12:30pm 18.8 16.9 10.4 58 4.7 NE 11 19 6 10 1020.0 1018.1 0.2
02/12:00pm 19.0 17.7 11.1 60 4.4 ENE 9 20 5 11 1020.4 1018.5 0.2
02/11:30am 18.1 16.6 9.2 56 4.8 NNE 7 15 4 8 1020.7 1018.7 0.2
02/11:00am 17.3 15.6 8.2 55 4.8 NE 7 17 4 9 1020.9 1018.9 0.0
02/10:30am 16.5 15.9 9.0 61 4.0 ENE 2 11 1 6 1021.0 1019.0 0.0
02/10:00am 15.0 13.3 8.5 65 3.4 S 7 11 4 6 1021.0 1019.0 0.0
02/09:30am 14.0 12.2 7.8 66 3.2 SSE 7 17 4 9 1021.0 1019.0 0.0
02/09:00am 13.1 11.6 8.4 73 2.4 SSW 6 9 3 5 1021.1 1019.1 5.4
02/08:30am 11.6 11.3 8.5 81 1.6 CALM 0 0 0 0 1020.9 1018.9 5.4
02/08:00am 9.5 9.0 7.8 89 0.8 CALM 0 0 0 0 1020.7 1018.7 5.4
02/07:30am 7.9 7.2 6.8 93 0.5 CALM 0 0 0 0 1020.8 1018.8 5.4
02/07:00am 7.5 5.3 6.1 91 0.7 SSW 7 13 4 7 1020.6 1018.6 5.4
02/06:30am 6.3 4.9 5.6 95 0.3 SSE 2 6 1 3 1019.9 1017.9 5.4
02/06:00am 6.1 5.0 5.2 94 0.4 CALM 0 0 0 0 1019.7 1017.7 5.4
02/05:30am 6.3 5.2 4.9 91 0.6 CALM 0 2 0 1 1019.5 1017.5 5.4
02/05:00am 7.7 7.0 7.0 95 0.3 CALM 0 0 0 0 1019.6 1017.6 5.4
02/04:30am 7.1 5.9 6.4 95 0.3 SSW 2 7 1 4 1019.6 1017.6 5.4
02/04:00am 6.7 5.7 5.5 92 0.6 CALM 0 0 0 0 1019.2 1017.2 5.4
02/03:30am 7.2 5.1 5.8 91 0.7 S 6 7 3 4 1019.0 1017.0 5.4
02/03:00am 8.4 7.4 7.2 92 0.6 S 2 6 1 3 1019.4 1017.4 5.4
02/02:30am 9.2 7.3 7.6 90 0.8 ESE 7 13 4 7 1019.4 1017.4 5.4
02/02:00am 9.9 7.0 8.2 89 0.9 ESE 13 15 7 8 1019.4 1017.4 5.4
02/01:30am 10.4 7.7 9.0 91 0.7 ESE 13 19 7 10 1019.1 1017.1 5.4
02/01:00am 10.0 7.5 8.4 90 0.8 ESE 11 15 6 8 1019.3 1017.3 5.4
02/12:30am 10.4 8.4 8.8 90 0.8 ESE 9 13 5 7 1018.8 1016.9 5.4
02/12:00am 10.7 8.3 8.8 88 1.0 ESE 11 17 6 9 1018.7 1016.8 5.4
 
Date/Time
EDT
Temp
°C
App
Temp
°C
Dew
Point
Rel
Hum
%
Delta-T
°C
Wind Press
QNH
hPa
Press
MSL
hPa
Rain
since 9 am
mm
Dir
 
Spd
km/h
Gust
km/h
Spd
kts
Gust
kts
01/11:30pm 11.6 9.9 9.7 88 1.0 ESE 9 13 5 7 1018.8 1016.9 5.4
01/11:00pm 12.3 10.4 10.5 89 1.0 ESE 11 19 6 10 1018.7 1016.8 5.4
01/10:30pm 13.6 12.5 12.0 90 0.9 ESE 9 13 5 7 1018.4 1016.4 5.4
01/10:00pm 13.9 13.0 12.5 91 0.8 SE 9 13 5 7 1018.2 1016.2 5.4
01/09:30pm 14.1 13.6 12.7 91 0.8 SE 7 13 4 7 1017.8 1015.8 5.4
01/09:00pm 14.1 13.3 12.8 92 0.7 SE 9 11 5 6 1017.0 1015.0 5.4
01/08:30pm 14.0 12.8 12.7 92 0.7 SE 11 17 6 9 1016.3 1014.3 5.4
01/08:00pm 14.0 12.8 12.7 92 0.7 SE 11 15 6 8 1015.6 1013.6 5.4
01/07:30pm 13.9 12.8 13.0 94 0.5 SE 11 19 6 10 1015.1 1013.1 5.4
01/07:00pm 14.1 12.2 13.1 94 0.6 SE 15 20 8 11 1014.4 1012.3 5.4
01/06:30pm 14.4 12.5 13.1 92 0.7 ESE 15 20 8 11 1013.6 1011.6 5.4
01/06:00pm 14.5 12.0 13.4 93 0.6 SE 19 24 10 13 1012.9 1010.8 5.4
01/05:30pm 14.6 11.6 13.6 94 0.6 SE 22 33 12 18 1012.0 1009.9 5.4
01/05:00pm 14.8 11.8 13.8 94 0.6 SE 22 32 12 17 1011.4 1009.3 5.4
01/04:30pm 16.3 13.4 15.0 92 0.8 ESE 24 33 13 18 1010.6 1008.5 5.4
01/04:00pm 18.0 14.8 15.3 84 1.6 ESE 26 35 14 19 1010.4 1008.3 5.4
01/03:30pm 20.0 18.9 17.8 87 1.4 ESE 20 28 11 15 1010.2 1008.1 5.4
01/03:00pm 18.2 17.9 16.4 89 1.1 ENE 13 24 7 13 1010.0 1007.9 5.4
01/02:47pm 19.4 18.1 15.7 79 2.3 SE 17 28 9 15 1011.7 1009.6 0.0
01/02:30pm 20.8 19.5 17.2 80 2.3 SE 20 30 11 16 1009.6 1007.5 0.0
01/02:00pm 20.2 18.2 16.4 79 2.4 SSE 22 35 12 19 1009.8 1007.7 0.0
01/01:30pm 20.8 18.8 15.6 72 3.2 SE 20 32 11 17 1009.6 1007.5 0.0
01/01:00pm 24.2 23.0 14.0 53 6.2 SW 13 28 7 15 1009.0 1006.9 0.0
01/12:30pm 27.3 24.8 10.9 36 9.6 WNW 15 24 8 13 1008.6 1006.5 0.0
01/12:00pm 27.7 25.1 12.1 38 9.3 WNW 17 35 9 19 1008.9 1006.8 0.0
01/11:30am 26.0 25.5 13.8 47 7.4 NW 9 15 5 8 1008.8 1006.7 0.0
01/11:00am 24.0 23.7 14.4 55 5.9 NNW 9 19 5 10 1008.7 1006.6 0.0
01/10:30am 22.9 22.7 14.7 60 5.0 NNW 9 19 5 10 1008.3 1005.5 0.0
01/10:00am 22.4 20.5 12.9 55 5.6 NW 15 22 8 12 1009.0 1006.2 0.0
01/09:30am 22.1 21.0 13.2 57 5.3 NW 11 19 6 10 1009.1 1006.3 0.0
01/09:00am 22.6 22.3 13.4 56 5.5 NW 7 17 4 9 1008.7 1005.9 0.0
01/08:30am 22.5 21.5 12.4 52 5.9 NW 9 22 5 12 1008.4 1005.6 0.0
01/08:00am 20.8 18.0 12.5 59 4.8 WNW 19 28 10 15 1008.3 1005.5 0.0
01/07:30am 18.9 17.6 13.7 72 3.1 NW 13 19 7 10 1008.2 1005.4 0.0
01/07:00am 14.1 14.8 12.3 89 1.0 CALM 0 0 0 0 1007.5 1004.7 0.0
01/06:30am 13.6 14.2 12.0 90 0.9 CALM 0 0 0 0 1007.2 1004.4 0.0
01/06:00am 13.7 14.4 12.3 91 0.8 CALM 0 0 0 0 1007.0 1004.2 0.0
01/05:30am 13.6 14.4 12.5 93 0.6 CALM 0 0 0 0 1006.7 1003.8 0.0
01/05:00am 14.2 15.2 13.2 94 0.6 CALM 0 0 0 0 1006.8 1004.0 0.0
01/04:30am 14.6 15.7 13.6 94 0.6 CALM 0 0 0 0 1007.0 1004.2 0.0
01/04:00am 14.6 15.7 13.5 93 0.6 CALM 0 0 0 0 1007.1 1004.3 0.0
01/03:30am 15.6 17.0 14.5 93 0.6 CALM 0 0 0 0 1007.4 1004.6 0.0
01/03:00am 15.2 16.5 14.2 94 0.6 CALM 0 0 0 0 1007.5 1004.7 0.0
01/02:30am 15.5 16.8 14.0 91 0.9 CALM 0 0 0 0 1007.9 1005.0 0.0
01/02:00am 15.7 17.2 14.7 94 0.6 CALM 0 0 0 0 1008.1 1005.2 0.0
01/01:30am 15.7 17.2 14.6 93 0.6 CALM 0 0 0 0 1008.6 1005.8 0.0
01/01:00am 15.8 17.3 14.7 93 0.7 CALM 0 0 0 0 1008.9 1006.1 0.0
01/12:30am 16.2 18.0 15.4 95 0.5 CALM 0 0 0 0 1009.2 1006.4 0.0
01/12:00am 16.3 18.0 15.2 93 0.7 CALM 0 0 0 0 1009.4 1006.5 0.0
 
Date/Time
EDT
Temp
°C
App
Temp
°C
Dew
Point
Rel
Hum
%
Delta-T
°C
Wind Press
QNH
hPa
Press
MSL
hPa
Rain
since 9 am
mm
Dir
 
Spd
km/h
Gust
km/h
Spd
kts
Gust
kts
28/11:30pm 16.4 18.2 15.4 94 0.6 CALM 0 0 0 0 1009.5 1006.7 0.0
28/11:00pm 16.6 18.2 15.0 90 1.0 CALM 0 0 0 0 1009.9 1007.1 0.0
28/10:30pm 17.8 20.0 16.5 92 0.8 CALM 0 0 0 0 1010.0 1007.2 0.0
28/10:00pm 18.3 20.4 16.3 88 1.2 CALM 0 0 0 0 1010.2 1007.4 0.0
28/09:30pm 19.8 22.3 17.2 85 1.6 CALM 0 0 0 0 1010.2 1007.4 0.0
28/09:00pm 20.3 23.1 17.9 86 1.5 CALM 0 0 0 0 1010.0 1007.2 0.0
28/08:30pm 20.3 22.1 17.3 83 1.9 SSW 4 6 2 3 1009.8 1007.0 0.0
28/08:00pm 21.1 21.8 15.6 71 3.4 ESE 6 9 3 5 1009.2 1006.4 0.0
28/07:30pm 24.1 24.9 12.7 49 6.8 CALM 0 0 0 0 1008.8 1006.0 0.0
28/07:00pm 26.8 27.5 12.1 40 8.7 CALM 0 0 0 0 1008.6 1005.8 0.0
28/06:30pm 28.3 27.4 10.5 33 10.4 NW 6 13 3 7 1008.6 1005.8 0.0

Other Formats:

Comma delimited format used in spreadsheet applications
http://www.bom.gov.au/fwo/IDN60801/IDN60801.94927.axf

JavaScript Object Notation format (JSON) in row-major order
http://www.bom.gov.au/fwo/IDN60801/IDN60801.94927.json